Aeroporto :
LOGIN :

Iscrizione | Disclaimer

   EN    FR    IT 

 










Sommario :    VFR   VFR Marginale   IFR   IFR Intensivo   IFR Molto Intensivo
Visibilità : 
Base nubi : 
>= 8 km
>= 3000ft
5 / 8 km
1000 / 3000 ft
1500m / 5 km
500 / 1000 ft
800 / 1500m
200 / 500 ft
< 800m
< 200 ft
Simboli :   Temporali  Nebbia  Neve Forte  Precipitazioni Forti  Vento > 20 kt
SIGMETs :   Varie  Temporali  Ghiacco  Turbolenza  Onda orograficha  Ceneri Vulcaniche






- Altitudine del aeroporto : 32 ft
- Codice IATA : LKZ


EGUL - RAF Lakenheath

ULTIMO METAR :
  • 071756Z AUTO 22013G21KT 9999 FEW048 FEW075 09/05 A2981 RMK AO2 SLP098 T00940054 10101 20090 58010 $

METARs OBSOLETI :
  • 071656Z AUTO 22008KT 9999 FEW060 SCT080 09/06 A2983 RMK AO2 SLP105 T00920056 $
  • 071556Z AUTO 22010KT 9999 BKN080 09/06 A2984 RMK AO2 SLP108 T00940058 $

TAF TAF EGUL
Valido dal 06 a 13 ore il 07 a 19 ore UTC


061300Z 0613/0719 22015G25KT 9999 BKN020 QNH2949INS
TEMPO 0613/0617 BKN015
BECMG 0617/0618 27015G20KT 9000 -SHRA BKN010 QNH2961INS
BECMG 0621/0622 27015G20KT 9999 NSW BKN020 QNH2971INS
BECMG 0705/0706 25010G20KT 9999 SCT020 BKN040 QNH2985INS TX13/0613Z TN07/0706Z LAST NO AMDS AFT 0613 NEXT 0906



MetMap, La meteo Aeronautica in un colpo d'occhio ! - Copyright ORBIFLY Dicembre 2007 - Disclaimer

ORBIFLY MET'MAP TEAM :

Programmazione e sviluppo : Alexandra Zaïnal
Concezione : Baudouin d'Aumeries
Aiuto per la programmazione : Marc-Olivier Méhu
Supporto tecnico e logistico : Manuel Goepfert
Aiuto per la traduzione : Arnaldo La Scala

Contatto : metmap@orbifly.com




FONTI E CREDITI :

   NOAA